Springboro, Ohio
Current Conditions -  °F | °C
As of 7:53 AM on Friday 24 Oct 2014 (Local Time) from KMGY Reporting Station
Clear Clear  
Wind Chill: 42°   Ceiling: Unl
Heat Index: 42°   Visibility: 8mi
Dew Point: 40°   Wind: 0mph
Humidity: 92%   Direction: NA
Pressure: 30.11"   Gusts: NA
Location:  39.56°N, 84.23°W
Report Text: KMGY 241153Z AUTO 00000KT 8SM CLR 06/04 A3011 RMK AO2 SLP198 T00560044 10089 20044 58001
Loading
Personal Weather Stations






























Interactive Weather Map
Tropical Storm Tracking
New forecast layout! Learn more

10-Day Weather Forecast

Advertisements
Track Severe Weather on mobile